createdAt,value
2019-03-21T00:04:39.581Z,98011.00
2019-03-21T00:15:57.680Z,98006.00
2019-03-21T00:21:00.728Z,98015.00
2019-03-21T00:26:03.692Z,98009.00
2019-03-21T00:31:06.814Z,98007.00
2019-03-21T00:36:10.524Z,98021.00
2019-03-21T00:41:13.873Z,98011.00
2019-03-21T00:46:16.851Z,98016.00
2019-03-21T00:51:19.924Z,98013.00
2019-03-21T00:56:24.021Z,98013.00
2019-03-21T01:01:28.949Z,98017.00
2019-03-21T01:06:32.152Z,98010.00
2019-03-21T01:11:35.190Z,98003.00
2019-03-21T01:16:38.411Z,98001.00
2019-03-21T01:21:41.616Z,98001.00
2019-03-21T01:26:44.843Z,98006.00
2019-03-21T01:31:47.884Z,98002.00
2019-03-21T01:36:50.978Z,97998.00
2019-03-21T01:41:54.011Z,98001.00
2019-03-21T01:46:57.008Z,98000.00
2019-03-21T01:52:01.519Z,97997.00
2019-03-21T01:57:04.573Z,97995.00
2019-03-21T02:02:07.559Z,98000.00
2019-03-21T02:07:11.264Z,97998.00
2019-03-21T02:12:15.163Z,97991.00
2019-03-21T02:17:18.255Z,97995.00
2019-03-21T02:22:21.191Z,97986.00
2019-03-21T02:27:24.645Z,97988.00
2019-03-21T02:32:27.621Z,97987.00
2019-03-21T02:37:30.845Z,97986.00
2019-03-21T02:42:33.804Z,97989.00
2019-03-21T02:47:36.749Z,97985.00
2019-03-21T02:52:39.814Z,97970.00
2019-03-21T02:57:42.846Z,97970.00
2019-03-21T03:02:46.193Z,97971.00
2019-03-21T03:07:49.780Z,97965.00
2019-03-21T03:12:53.203Z,97967.00
2019-03-21T03:17:56.608Z,97962.00
2019-03-21T03:22:59.586Z,97964.00
2019-03-21T03:28:05.690Z,97956.00
2019-03-21T03:33:08.695Z,97941.00
2019-03-21T03:38:11.893Z,97958.00
2019-03-21T03:43:14.934Z,97949.00
2019-03-21T03:48:19.943Z,97944.00
2019-03-21T03:53:22.716Z,97935.00
2019-03-21T03:58:25.794Z,97927.00
2019-03-21T04:03:28.712Z,97914.00
2019-03-21T04:08:31.795Z,97917.00
2019-03-21T04:13:35.037Z,97926.00
2019-03-21T04:18:37.983Z,97924.00
2019-03-21T04:23:41.145Z,97929.00
2019-03-21T04:28:43.980Z,97938.00
2019-03-21T04:33:46.912Z,97945.00
2019-03-21T04:55:39.036Z,97947.00
2019-03-21T05:06:56.325Z,97955.00
2019-03-21T05:12:00.712Z,97955.00
2019-03-21T05:17:03.971Z,97960.00
2019-03-21T05:22:07.055Z,97963.00
2019-03-21T06:06:36.617Z,97997.00
2019-03-21T06:11:43.304Z,98000.00
2019-03-21T06:16:47.111Z,97998.00
2019-03-21T06:22:27.463Z,97994.00
2019-03-21T06:27:30.405Z,97999.00
2019-03-21T06:32:33.479Z,98006.00
2019-03-21T06:37:36.451Z,98012.00
2019-03-21T06:42:40.729Z,98013.00
2019-03-21T06:47:44.246Z,98010.00
2019-03-21T06:52:47.065Z,98007.00
2019-03-21T06:57:50.376Z,98006.00
2019-03-21T07:02:53.347Z,98003.00
2019-03-21T07:07:56.311Z,98000.00
2019-03-21T07:13:00.108Z,98004.00
2019-03-21T07:18:03.044Z,98003.00
2019-03-21T07:23:06.072Z,98008.00
2019-03-21T07:28:09.389Z,98012.00
2019-03-21T07:33:12.349Z,98011.00
2019-03-21T07:38:15.279Z,98010.00
2019-03-21T07:43:19.259Z,98009.00
2019-03-21T07:48:22.204Z,98017.00
2019-03-21T07:53:25.884Z,98005.00
2019-03-21T07:58:29.191Z,98012.00
2019-03-21T08:03:32.816Z,98023.00
2019-03-21T08:08:36.023Z,98017.00
2019-03-21T08:13:39.700Z,98027.00
2019-03-21T08:18:42.683Z,98032.00
2019-03-21T08:23:45.619Z,98026.00
2019-03-21T08:28:48.867Z,98028.00
2019-03-21T08:33:51.814Z,98028.00
2019-03-21T08:38:55.078Z,98027.00
2019-03-21T08:43:59.284Z,98026.00
2019-03-21T08:49:02.189Z,98026.00
2019-03-21T08:54:05.210Z,98013.00
2019-03-21T08:59:08.150Z,98013.00
2019-03-21T09:04:12.136Z,98017.00
2019-03-21T09:09:15.143Z,98025.00
2019-03-21T09:14:18.669Z,98026.00
2019-03-21T09:19:21.924Z,98030.00
2019-03-21T09:24:25.172Z,98017.00
2019-03-21T09:29:29.151Z,98031.00
2019-03-21T09:34:32.177Z,98028.00
2019-03-21T09:39:36.497Z,98026.00
2019-03-21T09:44:40.644Z,98027.00
2019-03-21T09:49:43.740Z,98024.00
2019-03-21T09:54:46.679Z,98039.00
2019-03-21T09:59:49.627Z,98025.00
2019-03-21T10:04:52.731Z,98027.00
2019-03-21T10:09:55.601Z,98028.00
2019-03-21T10:15:00.847Z,98022.00
2019-03-21T10:20:04.198Z,98015.00
2019-03-21T10:25:07.908Z,98011.00
2019-03-21T10:30:13.340Z,98010.00
2019-03-21T10:35:16.331Z,98014.00
2019-03-21T10:40:19.935Z,98011.00
2019-03-21T10:45:24.246Z,97995.00
2019-03-21T10:50:32.184Z,97988.00
2019-03-21T10:55:35.291Z,97984.00
2019-03-21T11:00:39.083Z,97971.00
2019-03-21T11:05:42.080Z,97966.00
2019-03-21T11:10:47.172Z,97969.00
2019-03-21T11:15:51.112Z,97969.00
2019-03-21T11:20:54.223Z,97959.00
2019-03-21T11:25:57.168Z,97955.00
2019-03-21T11:31:00.565Z,97946.00
2019-03-21T11:36:03.471Z,97939.00
2019-03-21T11:41:06.745Z,97941.00
2019-03-21T11:46:09.995Z,97938.00
2019-03-21T11:51:13.078Z,97926.00
2019-03-21T11:56:16.277Z,97918.00
2019-03-21T12:01:19.239Z,97912.00
2019-03-21T12:06:22.352Z,97910.00
2019-03-21T12:11:25.400Z,97910.00
2019-03-21T12:16:30.336Z,97895.00
2019-03-21T12:21:33.192Z,97902.00
2019-03-21T12:26:36.452Z,97896.00
2019-03-21T12:31:39.548Z,97887.00
2019-03-21T12:36:42.699Z,97884.00
2019-03-21T12:41:45.607Z,97880.00
2019-03-21T12:46:48.592Z,97866.00
2019-03-21T12:51:51.646Z,97861.00
2019-03-21T12:56:54.496Z,97857.00
2019-03-21T13:01:57.429Z,97852.00
2019-03-21T13:07:00.392Z,97855.00
2019-03-21T13:12:03.416Z,97844.00
2019-03-21T13:17:06.350Z,97834.00
2019-03-21T13:22:09.499Z,97832.00
2019-03-21T13:27:12.616Z,97818.00
2019-03-21T13:32:15.540Z,97814.00
2019-03-21T13:37:18.721Z,97805.00
2019-03-21T13:42:21.734Z,97804.00
2019-03-21T13:47:24.652Z,97803.00
2019-03-21T13:52:27.959Z,97795.00
2019-03-21T13:57:31.320Z,97787.00
2019-03-21T14:02:34.204Z,97787.00
2019-03-21T14:07:37.424Z,97781.00
2019-03-21T14:12:40.534Z,97773.00
2019-03-21T14:17:43.427Z,97768.00
2019-03-21T14:22:47.185Z,97770.00
2019-03-21T14:27:50.177Z,97757.00
2019-03-21T14:32:53.084Z,97756.00
2019-03-21T14:37:56.037Z,97751.00
2019-03-21T14:42:59.035Z,97752.00
2019-03-21T14:48:02.335Z,97758.00
2019-03-21T14:53:05.300Z,97750.00
2019-03-21T14:58:08.197Z,97749.00
2019-03-21T15:03:12.796Z,97722.00
2019-03-21T15:08:15.642Z,97736.00
2019-03-21T15:13:18.548Z,97735.00
2019-03-21T15:18:21.444Z,97726.00
2019-03-21T15:23:26.161Z,97726.00
2019-03-21T15:28:29.195Z,97734.00
2019-03-21T15:33:32.167Z,97727.00
2019-03-21T15:38:35.122Z,97720.00
2019-03-21T15:43:38.015Z,97731.00
2019-03-21T15:48:41.020Z,97729.00
2019-03-21T15:53:54.564Z,97726.00
2019-03-21T15:58:49.503Z,97735.00
2019-03-21T16:03:52.683Z,97732.00
2019-03-21T16:08:56.317Z,97737.00
2019-03-21T16:13:59.218Z,97726.00
2019-03-21T16:19:01.999Z,97723.00
2019-03-21T16:24:06.155Z,97720.00
2019-03-21T16:29:10.309Z,97719.00
2019-03-21T16:34:13.379Z,97714.00
2019-03-21T16:39:17.795Z,97713.00
2019-03-21T16:44:20.803Z,97713.00
2019-03-21T16:49:23.731Z,97715.00
2019-03-21T16:54:26.891Z,97720.00
2019-03-21T16:59:31.138Z,97723.00
2019-03-21T17:04:34.864Z,97730.00
2019-03-21T17:09:37.895Z,97729.00
2019-03-21T17:14:40.852Z,97727.00
2019-03-21T17:19:43.901Z,97736.00
2019-03-21T17:24:46.894Z,97735.00
2019-03-21T17:29:50.875Z,97741.00
2019-03-21T17:34:53.788Z,97732.00
2019-03-21T17:39:56.791Z,97738.00
2019-03-21T17:44:59.794Z,97742.00
2019-03-21T17:50:03.165Z,97744.00
2019-03-21T17:55:07.388Z,97748.00
2019-03-21T18:00:13.653Z,97754.00
2019-03-21T18:05:17.150Z,97755.00
2019-03-21T18:10:26.616Z,97754.00
2019-03-21T18:15:29.573Z,97755.00
2019-03-21T18:20:33.519Z,97761.00
2019-03-21T18:25:36.467Z,97768.00
2019-03-21T18:30:39.719Z,97744.00
2019-03-21T18:35:42.649Z,97772.00
2019-03-21T18:40:45.564Z,97767.00
2019-03-21T18:45:48.577Z,97760.00
2019-03-21T18:50:52.139Z,97766.00
2019-03-21T18:55:55.495Z,97761.00
2019-03-21T19:00:58.843Z,97766.00
2019-03-21T19:06:01.840Z,97773.00
2019-03-21T19:11:05.186Z,97760.00
2019-03-21T19:16:08.333Z,97776.00
2019-03-21T19:21:12.509Z,97768.00
2019-03-21T19:26:16.137Z,97772.00
2019-03-21T19:31:19.875Z,97769.00
2019-03-21T19:36:22.739Z,97778.00
2019-03-21T19:41:27.251Z,97786.00
2019-03-21T19:46:30.401Z,97771.00
2019-03-21T19:51:33.563Z,97749.00
2019-03-21T19:56:36.697Z,97750.00
2019-03-21T20:01:40.709Z,97753.00
2019-03-21T20:06:45.128Z,97759.00
2019-03-21T20:11:48.160Z,97774.00
2019-03-21T20:16:51.764Z,97776.00
2019-03-21T20:21:54.951Z,97780.00
2019-03-21T20:26:57.883Z,97778.00
2019-03-21T20:32:00.964Z,97773.00
2019-03-21T20:37:04.045Z,97781.00
2019-03-21T20:42:08.785Z,97781.00
2019-03-21T20:47:12.463Z,97780.00
2019-03-21T20:52:16.523Z,97770.00
2019-03-21T20:57:19.656Z,97773.00
2019-03-21T21:02:23.531Z,97772.00
2019-03-21T21:07:27.804Z,97768.00
2019-03-21T21:12:30.997Z,97760.00
2019-03-21T21:17:34.260Z,97760.00
2019-03-21T21:22:38.128Z,97758.00
2019-03-21T21:27:49.167Z,97770.00
2019-03-21T21:32:47.181Z,97770.00
2019-03-21T21:37:50.423Z,97765.00
2019-03-21T21:42:53.532Z,97771.00
2019-03-21T21:47:56.837Z,97775.00
2019-03-21T21:52:59.848Z,97775.00
2019-03-21T21:58:03.568Z,97780.00
2019-03-21T22:03:07.020Z,97773.00
2019-03-21T22:08:10.243Z,97782.00
2019-03-21T22:13:13.368Z,97785.00
2019-03-21T22:18:16.315Z,97791.00
2019-03-21T22:23:19.349Z,97779.00
2019-03-21T22:28:22.398Z,97777.00
2019-03-21T22:33:26.603Z,97783.00
2019-03-21T22:38:29.870Z,97781.00
2019-03-21T22:43:33.087Z,97778.00
2019-03-21T22:48:36.172Z,97795.00
2019-03-21T22:53:39.318Z,97768.00
2019-03-21T22:58:42.309Z,97767.00
2019-03-21T23:03:45.575Z,97762.00
2019-03-21T23:08:48.665Z,97759.00
2019-03-21T23:13:52.816Z,97757.00
2019-03-21T23:18:55.883Z,97751.00
2019-03-21T23:23:58.858Z,97752.00
2019-03-21T23:29:02.431Z,97751.00
2019-03-21T23:34:07.190Z,97758.00
2019-03-21T23:39:10.266Z,97752.00
2019-03-21T23:44:14.425Z,97751.00
2019-03-21T23:49:17.515Z,97744.00
2019-03-21T23:54:20.590Z,97732.00
2019-03-21T23:59:24.667Z,97739.00
